createdAt,value
2022-09-26T00:01:43.610Z,88.10
2022-09-26T00:04:22.670Z,88.11
2022-09-26T00:06:55.255Z,88.13
2022-09-26T00:09:25.758Z,88.03
2022-09-26T00:11:54.459Z,88.04
2022-09-26T00:14:25.777Z,88.06
2022-09-26T00:16:54.460Z,87.97
2022-09-26T00:19:23.857Z,88.00
2022-09-26T00:21:52.509Z,87.77
2022-09-26T00:24:21.068Z,87.69
2022-09-26T00:26:49.683Z,87.73
2022-09-26T00:29:18.185Z,88.22
2022-09-26T00:31:48.410Z,88.12
2022-09-26T00:34:19.251Z,87.96
2022-09-26T00:36:49.753Z,87.94
2022-09-26T00:39:18.377Z,88.01
2022-09-26T00:41:46.865Z,87.90
2022-09-26T00:44:40.649Z,87.72
2022-09-26T00:47:21.291Z,87.65
2022-09-26T00:49:52.781Z,87.73
2022-09-26T00:52:26.335Z,87.54
2022-09-26T00:54:59.064Z,87.60
2022-09-26T00:57:33.171Z,87.60
2022-09-26T01:00:05.447Z,87.43
2022-09-26T01:02:34.707Z,87.35
2022-09-26T01:05:07.001Z,87.58
2022-09-26T01:07:35.895Z,88.09
2022-09-26T01:10:06.511Z,88.27
2022-09-26T01:12:37.539Z,88.43
2022-09-26T01:15:09.227Z,88.62
2022-09-26T01:17:39.785Z,88.54
2022-09-26T01:20:24.360Z,89.02
2022-09-26T01:23:24.395Z,89.26
2022-09-26T01:26:19.778Z,89.33
2022-09-26T01:29:08.220Z,89.39
2022-09-26T01:32:06.434Z,89.34
2022-09-26T01:34:43.574Z,89.42
2022-09-26T01:37:22.344Z,89.31
2022-09-26T01:40:03.019Z,89.51
2022-09-26T01:42:39.650Z,89.47
2022-09-26T01:45:17.559Z,89.38
2022-09-26T01:47:55.305Z,89.26
2022-09-26T01:50:31.362Z,89.33
2022-09-26T01:53:05.272Z,89.24
2022-09-26T01:55:40.234Z,89.57
2022-09-26T01:58:14.049Z,89.44
2022-09-26T02:00:46.858Z,89.43
2022-09-26T02:03:19.073Z,89.37
2022-09-26T02:05:52.628Z,89.52
2022-09-26T02:08:26.450Z,89.58
2022-09-26T02:11:01.685Z,89.68
2022-09-26T02:13:35.242Z,89.60
2022-09-26T02:16:07.912Z,89.60
2022-09-26T02:18:41.076Z,89.45
2022-09-26T02:21:14.610Z,89.45
2022-09-26T02:23:43.387Z,89.46
2022-09-26T02:26:11.976Z,89.45
2022-09-26T02:28:42.783Z,89.19
2022-09-26T02:31:19.933Z,89.55
2022-09-26T02:33:49.510Z,89.19
2022-09-26T02:36:20.582Z,89.27
2022-09-26T02:38:49.101Z,89.45
2022-09-26T02:41:45.830Z,89.31
2022-09-26T02:44:30.042Z,89.42
2022-09-26T02:47:17.421Z,89.68
2022-09-26T02:50:02.402Z,89.65
2022-09-26T02:52:42.617Z,89.74
2022-09-26T02:55:20.672Z,89.87
2022-09-26T02:58:05.137Z,89.89
2022-09-26T03:00:48.232Z,90.06
2022-09-26T03:03:22.355Z,90.01
2022-09-26T03:05:54.725Z,89.86
2022-09-26T03:08:26.859Z,90.00
2022-09-26T03:11:02.068Z,90.25
2022-09-26T03:13:35.671Z,90.17
2022-09-26T03:16:06.257Z,90.21
2022-09-26T03:18:40.160Z,90.17
2022-09-26T03:21:09.377Z,90.28
2022-09-26T03:23:38.647Z,90.20
2022-09-26T03:26:12.109Z,90.14
2022-09-26T03:28:47.536Z,90.16
2022-09-26T03:31:21.794Z,90.27
2022-09-26T03:33:55.689Z,90.09
2022-09-26T03:36:24.345Z,90.07
2022-09-26T03:38:53.018Z,90.10
2022-09-26T03:41:44.620Z,90.16
2022-09-26T03:44:30.016Z,90.11
2022-09-26T03:47:16.619Z,89.97
2022-09-26T03:49:46.646Z,89.99
2022-09-26T03:52:15.194Z,90.00
2022-09-26T03:54:45.182Z,89.80
2022-09-26T03:57:15.006Z,89.83
2022-09-26T03:59:54.598Z,90.01
2022-09-26T04:02:23.194Z,89.94
2022-09-26T04:04:57.392Z,90.03
2022-09-26T04:07:26.173Z,90.25
2022-09-26T04:09:54.740Z,90.22
2022-09-26T04:12:23.226Z,90.33
2022-09-26T04:14:53.789Z,90.33
2022-09-26T04:17:23.752Z,90.43
2022-09-26T04:19:52.119Z,90.65
2022-09-26T04:22:20.854Z,90.58
2022-09-26T04:24:50.973Z,90.62
2022-09-26T04:27:23.110Z,90.51
2022-09-26T04:29:51.639Z,90.56
2022-09-26T04:32:38.135Z,90.74
2022-09-26T04:35:26.741Z,90.63
2022-09-26T04:37:55.213Z,90.66
2022-09-26T04:40:23.799Z,90.81
2022-09-26T04:43:01.302Z,90.90
2022-09-26T04:45:29.836Z,90.89
2022-09-26T04:47:58.315Z,90.95
2022-09-26T04:50:28.310Z,91.12
2022-09-26T04:53:06.705Z,91.01
2022-09-26T04:55:38.788Z,91.08
2022-09-26T04:58:07.181Z,91.05
2022-09-26T05:00:35.713Z,91.17
2022-09-26T05:03:09.110Z,90.96
2022-09-26T05:05:38.585Z,91.07
2022-09-26T05:08:07.301Z,91.25
2022-09-26T05:10:35.757Z,91.21
2022-09-26T05:13:04.310Z,91.21
2022-09-26T05:15:39.253Z,91.08
2022-09-26T05:18:10.722Z,91.29
2022-09-26T05:20:39.651Z,91.35
2022-09-26T05:23:10.064Z,91.31
2022-09-26T05:25:59.507Z,91.25
2022-09-26T05:28:28.007Z,91.39
2022-09-26T05:30:56.673Z,91.41
2022-09-26T05:33:25.371Z,91.45
2022-09-26T05:35:54.206Z,91.28
2022-09-26T05:38:22.727Z,91.48
2022-09-26T05:40:57.613Z,91.24
2022-09-26T05:43:28.939Z,91.33
2022-09-26T05:45:59.507Z,91.33
2022-09-26T05:48:32.052Z,91.21
2022-09-26T05:51:10.347Z,91.24
2022-09-26T05:53:43.046Z,91.27
2022-09-26T05:56:18.249Z,91.16
2022-09-26T05:59:06.434Z,91.12
2022-09-26T06:01:54.288Z,91.26
2022-09-26T06:04:31.676Z,91.17
2022-09-26T06:07:13.541Z,91.13
2022-09-26T06:09:44.057Z,91.20
2022-09-26T06:12:18.979Z,91.18
2022-09-26T06:14:47.403Z,91.18
2022-09-26T06:17:15.900Z,91.14
2022-09-26T06:19:45.075Z,90.98
2022-09-26T06:22:13.972Z,90.81
2022-09-26T06:24:42.592Z,90.99
2022-09-26T06:27:13.405Z,90.98
2022-09-26T06:29:43.071Z,91.00
2022-09-26T06:32:11.763Z,90.83
2022-09-26T06:34:43.190Z,90.87
2022-09-26T06:37:32.166Z,90.81
2022-09-26T06:40:02.476Z,90.81
2022-09-26T06:42:37.433Z,90.70
2022-09-26T06:45:21.189Z,90.77
2022-09-26T06:48:11.400Z,90.84
2022-09-26T06:51:00.161Z,90.96
2022-09-26T06:53:30.240Z,90.83
2022-09-26T06:55:59.884Z,90.80
2022-09-26T06:58:28.676Z,90.73
2022-09-26T07:01:08.167Z,90.73
2022-09-26T07:03:45.986Z,90.70
2022-09-26T07:06:28.463Z,90.72
2022-09-26T07:09:03.176Z,90.72
2022-09-26T07:12:14.243Z,90.64
2022-09-26T07:14:43.087Z,90.79
2022-09-26T07:17:32.452Z,90.85
2022-09-26T07:20:20.470Z,90.72
2022-09-26T07:23:08.062Z,90.17
2022-09-26T07:25:38.937Z,90.02
2022-09-26T07:28:09.467Z,89.88
2022-09-26T07:30:59.070Z,89.61
2022-09-26T07:33:47.881Z,89.55
2022-09-26T07:36:17.897Z,89.34
2022-09-26T07:38:48.738Z,89.20
2022-09-26T07:41:18.722Z,89.04
2022-09-26T07:46:55.124Z,88.81
2022-09-26T07:49:42.840Z,88.63
2022-09-26T07:52:37.421Z,88.49
2022-09-26T07:55:25.913Z,88.58
2022-09-26T07:58:13.082Z,88.68
2022-09-26T08:01:00.004Z,88.61
2022-09-26T08:03:47.970Z,88.43
2022-09-26T08:06:36.689Z,88.49
2022-09-26T08:09:05.456Z,88.41
2022-09-26T08:11:52.691Z,88.28
2022-09-26T08:14:40.015Z,88.51
2022-09-26T08:17:32.044Z,88.23
2022-09-26T08:20:01.141Z,88.10
2022-09-26T08:22:30.397Z,87.84
2022-09-26T08:25:00.254Z,87.78
2022-09-26T08:27:47.987Z,87.51
2022-09-26T08:30:17.287Z,87.37
2022-09-26T08:32:53.424Z,87.41
2022-09-26T08:35:22.062Z,87.30
2022-09-26T08:38:16.793Z,87.21
2022-09-26T08:40:55.547Z,86.86
2022-09-26T08:43:52.069Z,86.70
2022-09-26T08:46:51.019Z,86.27
2022-09-26T08:49:42.183Z,85.84
2022-09-26T08:52:29.355Z,85.32
2022-09-26T08:55:01.155Z,85.04
2022-09-26T08:57:36.586Z,85.25
2022-09-26T09:00:18.285Z,85.24
2022-09-26T09:03:01.280Z,85.03
2022-09-26T09:05:33.796Z,84.73
2022-09-26T09:08:08.840Z,84.40
2022-09-26T09:10:53.292Z,84.22
2022-09-26T09:13:48.436Z,83.31
2022-09-26T09:16:41.587Z,83.34
2022-09-26T09:19:39.919Z,83.11
2022-09-26T09:23:12.103Z,82.63
2022-09-26T09:25:54.607Z,82.73
2022-09-26T09:28:34.316Z,82.48
2022-09-26T09:31:06.268Z,81.91
2022-09-26T09:34:08.937Z,81.95
2022-09-26T09:37:02.446Z,81.93
2022-09-26T09:39:50.810Z,81.60
2022-09-26T09:42:36.515Z,81.16
2022-09-26T09:45:16.575Z,80.83
2022-09-26T09:47:46.691Z,80.61
2022-09-26T09:50:25.415Z,80.59
2022-09-26T09:53:05.650Z,80.45
2022-09-26T09:55:46.675Z,80.59
2022-09-26T09:58:29.204Z,80.30
2022-09-26T10:01:09.211Z,79.92
2022-09-26T10:03:43.528Z,79.07
2022-09-26T10:06:45.245Z,78.33
2022-09-26T10:09:39.242Z,77.90
2022-09-26T10:12:23.081Z,77.31
2022-09-26T10:15:19.360Z,76.81
2022-09-26T10:18:27.049Z,76.31
2022-09-26T10:21:27.940Z,76.71
2022-09-26T10:23:58.457Z,77.02
2022-09-26T10:26:44.198Z,77.54
2022-09-26T10:29:24.016Z,76.88
2022-09-26T10:31:59.717Z,76.70
2022-09-26T10:34:30.706Z,76.47
2022-09-26T10:37:20.903Z,76.89
2022-09-26T10:40:12.328Z,76.87
2022-09-26T10:42:46.069Z,76.52
2022-09-26T10:45:19.797Z,76.41
2022-09-26T10:48:21.500Z,75.78
2022-09-26T10:51:14.468Z,75.64
2022-09-26T10:53:51.455Z,75.26
2022-09-26T10:56:26.553Z,74.64
2022-09-26T10:58:59.612Z,75.04
2022-09-26T11:01:30.832Z,74.18
2022-09-26T11:04:36.383Z,73.80
2022-09-26T11:07:29.808Z,73.34
2022-09-26T11:10:24.752Z,72.81
2022-09-26T11:13:18.309Z,73.51
2022-09-26T11:16:00.559Z,72.97
2022-09-26T11:18:40.117Z,72.65
2022-09-26T11:21:28.265Z,73.42
2022-09-26T11:24:10.969Z,73.96
2022-09-26T11:26:49.019Z,73.09
2022-09-26T11:29:24.167Z,72.73
2022-09-26T11:32:05.089Z,72.54
2022-09-26T11:35:02.362Z,72.01
2022-09-26T11:37:50.147Z,71.97
2022-09-26T11:40:35.308Z,72.46
2022-09-26T11:43:14.993Z,72.45
2022-09-26T11:45:58.893Z,71.69
2022-09-26T11:49:34.590Z,72.59
2022-09-26T11:52:57.816Z,72.60
2022-09-26T11:55:32.786Z,71.94
2022-09-26T11:58:11.067Z,72.17
2022-09-26T12:00:50.949Z,72.88
2022-09-26T12:03:45.016Z,73.20
2022-09-26T12:06:25.336Z,73.47
2022-09-26T12:09:18.321Z,72.84
2022-09-26T12:11:59.448Z,73.59
2022-09-26T12:14:42.517Z,73.86
2022-09-26T12:17:19.555Z,73.38
2022-09-26T12:19:57.434Z,72.87
2022-09-26T12:22:34.416Z,72.90
2022-09-26T12:25:29.918Z,72.65
2022-09-26T12:28:11.166Z,72.42
2022-09-26T12:30:48.374Z,72.98
2022-09-26T12:33:49.730Z,72.70
2022-09-26T12:36:30.620Z,72.54
2022-09-26T12:39:16.794Z,73.03
2022-09-26T12:42:03.893Z,72.46
2022-09-26T12:44:55.141Z,72.64
2022-09-26T12:47:42.814Z,72.47
2022-09-26T12:50:24.422Z,71.79
2022-09-26T12:53:25.852Z,71.74
2022-09-26T12:56:05.639Z,72.23
2022-09-26T12:58:45.509Z,72.27
2022-09-26T13:01:30.470Z,72.42
2022-09-26T13:04:23.490Z,72.94
2022-09-26T13:07:18.870Z,72.99
2022-09-26T13:10:15.355Z,72.92
2022-09-26T13:13:02.513Z,73.20
2022-09-26T13:15:39.429Z,73.57
2022-09-26T13:18:15.618Z,73.57
2022-09-26T13:20:49.397Z,73.42
2022-09-26T13:23:26.840Z,74.13
2022-09-26T13:26:00.077Z,74.08
2022-09-26T13:28:37.175Z,73.96
2022-09-26T13:31:18.379Z,74.07
2022-09-26T13:33:52.329Z,74.18
2022-09-26T13:36:22.555Z,74.41
2022-09-26T13:38:58.425Z,74.40
2022-09-26T13:41:38.072Z,73.89
2022-09-26T13:44:22.305Z,73.49
2022-09-26T13:47:01.147Z,73.33
2022-09-26T13:49:43.097Z,73.53
2022-09-26T13:52:27.586Z,72.76
2022-09-26T13:55:01.467Z,72.44
2022-09-26T13:57:38.247Z,72.82
2022-09-26T14:00:40.191Z,73.00
2022-09-26T14:03:44.258Z,73.51
2022-09-26T14:06:33.099Z,73.92
2022-09-26T14:09:27.541Z,74.49
2022-09-26T14:12:33.965Z,74.26
2022-09-26T14:15:23.586Z,73.80
2022-09-26T14:18:07.028Z,73.65
2022-09-26T14:20:50.653Z,74.13
2022-09-26T14:23:34.664Z,73.88
2022-09-26T14:26:07.896Z,73.43
2022-09-26T14:28:38.641Z,73.14
2022-09-26T14:31:43.638Z,73.30
2022-09-26T14:34:22.242Z,73.15
2022-09-26T14:36:52.823Z,73.17
2022-09-26T14:39:31.419Z,73.30
2022-09-26T14:42:08.312Z,73.36
2022-09-26T14:44:38.478Z,73.56
2022-09-26T14:47:15.901Z,73.69
2022-09-26T14:49:54.123Z,73.88
2022-09-26T14:52:24.701Z,74.00
2022-09-26T14:55:00.453Z,73.81
2022-09-26T14:57:32.770Z,74.00
2022-09-26T15:00:22.414Z,73.93
2022-09-26T15:03:00.261Z,74.36
2022-09-26T15:05:31.250Z,74.56
2022-09-26T15:08:00.661Z,74.41
2022-09-26T15:10:41.213Z,74.25
2022-09-26T15:13:21.916Z,74.34
2022-09-26T15:15:57.763Z,74.51
2022-09-26T15:18:37.196Z,74.58
2022-09-26T15:21:18.350Z,74.67
2022-09-26T15:23:49.758Z,75.11
2022-09-26T15:26:21.811Z,75.23
2022-09-26T15:28:52.184Z,75.01
2022-09-26T15:31:27.627Z,75.10
2022-09-26T15:34:01.489Z,75.34
2022-09-26T15:36:31.602Z,76.78
2022-09-26T15:39:01.458Z,77.88
2022-09-26T15:41:48.518Z,79.59
2022-09-26T15:44:30.423Z,80.52
2022-09-26T15:46:59.271Z,81.23
2022-09-26T15:49:28.114Z,81.71
2022-09-26T15:51:57.430Z,82.05
2022-09-26T15:54:30.487Z,82.64
2022-09-26T15:57:02.271Z,83.56
2022-09-26T15:59:38.582Z,88.82
2022-09-26T16:02:25.688Z,91.77
2022-09-26T16:04:55.253Z,93.93
2022-09-26T16:07:27.388Z,95.35
2022-09-26T16:09:57.634Z,96.48
2022-09-26T16:12:29.211Z,97.23
2022-09-26T16:15:03.058Z,98.27
2022-09-26T16:17:35.238Z,98.89
2022-09-26T16:20:21.444Z,99.49
2022-09-26T16:22:51.431Z,99.92
2022-09-26T16:25:52.212Z,100.00
2022-09-26T16:28:36.997Z,100.00
2022-09-26T16:31:23.775Z,100.00
2022-09-26T16:33:54.708Z,100.00
2022-09-26T16:36:25.231Z,100.00
2022-09-26T16:38:56.437Z,100.00
2022-09-26T16:41:56.140Z,100.00
2022-09-26T16:44:27.380Z,100.00
2022-09-26T16:47:01.073Z,100.00
2022-09-26T16:49:42.345Z,100.00
2022-09-26T16:52:24.563Z,100.00
2022-09-26T16:54:53.457Z,100.00
2022-09-26T16:57:26.142Z,100.00
2022-09-26T17:00:17.455Z,100.00
2022-09-26T17:02:46.721Z,100.00
2022-09-26T17:05:18.832Z,100.00
2022-09-26T17:07:49.619Z,100.00
2022-09-26T17:10:19.546Z,100.00
2022-09-26T17:12:50.850Z,100.00
2022-09-26T17:15:25.931Z,100.00
2022-09-26T17:18:00.510Z,100.00
2022-09-26T17:20:29.542Z,100.00
2022-09-26T17:22:58.291Z,100.00
2022-09-26T17:25:27.143Z,100.00
2022-09-26T17:27:58.982Z,100.00
2022-09-26T17:30:28.942Z,100.00
2022-09-26T17:32:58.480Z,100.00
2022-09-26T17:35:31.419Z,100.00
2022-09-26T17:38:00.491Z,100.00
2022-09-26T17:40:31.461Z,100.00
2022-09-26T17:43:01.502Z,100.00
2022-09-26T17:45:33.329Z,100.00
2022-09-26T17:48:04.911Z,100.00
2022-09-26T17:50:34.923Z,100.00
2022-09-26T17:53:03.763Z,100.00
2022-09-26T17:55:32.958Z,100.00
2022-09-26T17:58:04.466Z,100.00
2022-09-26T18:00:38.324Z,100.00
2022-09-26T18:03:10.688Z,100.00
2022-09-26T18:05:39.937Z,100.00
2022-09-26T18:08:16.741Z,100.00
2022-09-26T18:10:49.555Z,100.00
2022-09-26T18:13:25.527Z,100.00
2022-09-26T18:15:55.169Z,100.00
2022-09-26T18:18:27.260Z,100.00
2022-09-26T18:20:58.156Z,100.00
2022-09-26T18:23:29.231Z,100.00
2022-09-26T18:25:59.318Z,100.00
2022-09-26T18:28:28.200Z,100.00
2022-09-26T18:31:00.250Z,100.00
2022-09-26T18:33:35.774Z,100.00
2022-09-26T18:36:12.010Z,100.00
2022-09-26T18:38:40.728Z,100.00
2022-09-26T18:41:11.078Z,100.00
2022-09-26T18:43:41.804Z,100.00
2022-09-26T18:46:13.382Z,100.00
2022-09-26T18:48:42.502Z,100.00
2022-09-26T18:51:12.110Z,100.00
2022-09-26T18:53:41.443Z,100.00
2022-09-26T18:56:29.502Z,100.00
2022-09-26T18:58:58.269Z,100.00
2022-09-26T19:01:30.092Z,100.00
2022-09-26T19:04:00.903Z,100.00
2022-09-26T19:06:34.308Z,100.00
2022-09-26T19:09:05.689Z,100.00
2022-09-26T19:11:35.611Z,100.00
2022-09-26T19:14:13.207Z,100.00
2022-09-26T19:16:44.596Z,100.00
2022-09-26T19:19:14.003Z,100.00
2022-09-26T19:21:46.214Z,100.00
2022-09-26T19:24:20.870Z,100.00
2022-09-26T19:26:54.072Z,100.00
2022-09-26T19:29:29.905Z,100.00
2022-09-26T19:31:58.924Z,100.00
2022-09-26T19:34:32.526Z,100.00
2022-09-26T19:37:02.459Z,100.00
2022-09-26T19:39:31.838Z,100.00
2022-09-26T19:42:01.117Z,100.00
2022-09-26T19:44:29.740Z,100.00
2022-09-26T19:46:59.251Z,100.00
2022-09-26T19:49:30.581Z,100.00
2022-09-26T19:52:00.580Z,100.00
2022-09-26T19:54:29.322Z,100.00
2022-09-26T19:56:58.387Z,100.00
2022-09-26T19:59:27.753Z,100.00
2022-09-26T20:01:56.584Z,100.00
2022-09-26T20:04:26.623Z,100.00
2022-09-26T20:06:55.033Z,100.00
2022-09-26T20:09:23.410Z,100.00
2022-09-26T20:11:52.773Z,100.00
2022-09-26T20:14:24.038Z,100.00
2022-09-26T20:16:55.106Z,100.00
2022-09-26T20:19:35.659Z,100.00
2022-09-26T20:22:06.881Z,100.00
2022-09-26T20:24:37.866Z,100.00
2022-09-26T20:27:10.476Z,100.00
2022-09-26T20:29:57.308Z,100.00
2022-09-26T20:32:25.924Z,100.00
2022-09-26T20:34:59.741Z,100.00
2022-09-26T20:37:31.141Z,100.00
2022-09-26T20:51:00.060Z,100.00
2022-09-26T20:53:31.959Z,100.00
2022-09-26T20:56:04.175Z,100.00
2022-09-26T20:58:36.023Z,100.00
2022-09-26T21:01:12.039Z,100.00
2022-09-26T21:03:46.925Z,100.00
2022-09-26T21:06:21.196Z,100.00
2022-09-26T21:08:53.376Z,100.00
2022-09-26T21:11:25.593Z,100.00
2022-09-26T21:13:57.576Z,100.00
2022-09-26T21:16:29.563Z,100.00
2022-09-26T21:19:01.819Z,100.00
2022-09-26T21:21:33.664Z,100.00
2022-09-26T21:24:24.815Z,100.00
2022-09-26T21:26:57.397Z,100.00
2022-09-26T21:29:29.887Z,100.00
2022-09-26T21:32:04.602Z,100.00
2022-09-26T21:34:38.837Z,100.00
2022-09-26T21:37:12.308Z,100.00
2022-09-26T21:39:44.177Z,100.00
2022-09-26T21:42:16.451Z,100.00
2022-09-26T21:44:54.260Z,100.00
2022-09-26T21:47:26.637Z,100.00
2022-09-26T21:49:58.485Z,100.00
2022-09-26T21:52:37.015Z,100.00
2022-09-26T21:55:13.934Z,100.00
2022-09-26T21:57:48.130Z,100.00
2022-09-26T22:00:20.064Z,100.00
2022-09-26T22:02:52.001Z,100.00
2022-09-26T22:05:23.983Z,100.00
2022-09-26T22:07:57.430Z,100.00
2022-09-26T22:10:29.799Z,100.00
2022-09-26T22:13:01.720Z,100.00
2022-09-26T22:15:33.570Z,100.00
2022-09-26T22:18:05.931Z,100.00
2022-09-26T22:20:38.228Z,100.00
2022-09-26T22:23:10.107Z,100.00
2022-09-26T22:25:43.004Z,100.00
2022-09-26T22:28:14.924Z,100.00
2022-09-26T22:30:46.833Z,100.00
2022-09-26T22:33:20.095Z,100.00
2022-09-26T22:35:52.605Z,100.00
2022-09-26T22:38:24.447Z,100.00
2022-09-26T22:41:00.758Z,100.00
2022-09-26T22:43:34.038Z,100.00
2022-09-26T22:46:08.749Z,100.00
2022-09-26T22:48:42.888Z,100.00
2022-09-26T22:51:15.449Z,100.00
2022-09-26T22:53:47.562Z,100.00
2022-09-26T22:56:20.071Z,100.00
2022-09-26T22:58:53.474Z,100.00
2022-09-26T23:01:28.846Z,100.00
2022-09-26T23:04:01.337Z,100.00
2022-09-26T23:06:34.039Z,100.00
2022-09-26T23:09:08.876Z,100.00
2022-09-26T23:11:41.059Z,100.00
2022-09-26T23:14:12.832Z,100.00
2022-09-26T23:16:44.658Z,100.00
2022-09-26T23:19:16.952Z,100.00
2022-09-26T23:21:49.168Z,100.00
2022-09-26T23:24:21.391Z,100.00
2022-09-26T23:26:53.320Z,100.00
2022-09-26T23:29:25.438Z,100.00
2022-09-26T23:31:57.991Z,100.00
2022-09-26T23:34:29.738Z,100.00
2022-09-26T23:37:01.595Z,100.00
2022-09-26T23:39:33.474Z,100.00
2022-09-26T23:42:05.448Z,100.00
2022-09-26T23:44:37.313Z,100.00
2022-09-26T23:47:11.527Z,100.00
2022-09-26T23:49:43.338Z,100.00
2022-09-26T23:52:15.194Z,100.00
2022-09-26T23:54:47.273Z,100.00
2022-09-26T23:57:19.052Z,100.00
2022-09-26T23:59:50.824Z,100.00
